sensor_id;sensor_type;location;lat;lon;timestamp;pressure;altitude;pressure_sealevel;temperature
8362;BMP180;4218;48.326;14.304;2022-07-15T00:01:32;98446.00;;;18.10
8362;BMP180;4218;48.326;14.304;2022-07-15T00:03:59;98422.00;;;18.40
8362;BMP180;4218;48.326;14.304;2022-07-15T00:06:25;98438.00;;;18.30
8362;BMP180;4218;48.326;14.304;2022-07-15T00:08:51;98440.00;;;18.10
8362;BMP180;4218;48.326;14.304;2022-07-15T00:11:16;98422.00;;;18.10
8362;BMP180;4218;48.326;14.304;2022-07-15T00:13:42;98446.00;;;18.30
8362;BMP180;4218;48.326;14.304;2022-07-15T00:16:07;98445.00;;;18.50
8362;BMP180;4218;48.326;14.304;2022-07-15T00:18:32;98458.00;;;18.40
8362;BMP180;4218;48.326;14.304;2022-07-15T00:20:58;98471.00;;;18.20
8362;BMP180;4218;48.326;14.304;2022-07-15T00:23:23;98463.00;;;18.20
8362;BMP180;4218;48.326;14.304;2022-07-15T00:25:49;98445.00;;;18.10
8362;BMP180;4218;48.326;14.304;2022-07-15T00:28:14;98442.00;;;18.20
8362;BMP180;4218;48.326;14.304;2022-07-15T00:30:41;98460.00;;;18.20
8362;BMP180;4218;48.326;14.304;2022-07-15T00:33:08;98477.00;;;18.20
8362;BMP180;4218;48.326;14.304;2022-07-15T00:35:35;98496.00;;;18.10
8362;BMP180;4218;48.326;14.304;2022-07-15T00:38:01;98482.00;;;18.10
8362;BMP180;4218;48.326;14.304;2022-07-15T00:40:27;98460.00;;;18.30
8362;BMP180;4218;48.326;14.304;2022-07-15T00:42:53;98510.00;;;18.20
8362;BMP180;4218;48.326;14.304;2022-07-15T00:45:24;98534.00;;;18.10
8362;BMP180;4218;48.326;14.304;2022-07-15T00:47:52;98467.00;;;18.40
8362;BMP180;4218;48.326;14.304;2022-07-15T00:53:02;98526.00;;;17.90
8362;BMP180;4218;48.326;14.304;2022-07-15T00:55:36;98546.00;;;17.90
8362;BMP180;4218;48.326;14.304;2022-07-15T00:58:04;98568.00;;;17.80
8362;BMP180;4218;48.326;14.304;2022-07-15T01:00:30;98583.00;;;17.70
8362;BMP180;4218;48.326;14.304;2022-07-15T01:02:58;98555.00;;;17.60
8362;BMP180;4218;48.326;14.304;2022-07-15T01:05:27;98512.00;;;17.50
8362;BMP180;4218;48.326;14.304;2022-07-15T01:07:54;98503.00;;;17.30
8362;BMP180;4218;48.326;14.304;2022-07-15T01:10:22;98514.00;;;17.40
8362;BMP180;4218;48.326;14.304;2022-07-15T01:12:50;98548.00;;;17.40
8362;BMP180;4218;48.326;14.304;2022-07-15T01:15:16;98571.00;;;17.40
8362;BMP180;4218;48.326;14.304;2022-07-15T01:17:44;98592.00;;;17.50
8362;BMP180;4218;48.326;14.304;2022-07-15T01:20:12;98637.00;;;17.30
8362;BMP180;4218;48.326;14.304;2022-07-15T01:22:39;98648.00;;;17.10
8362;BMP180;4218;48.326;14.304;2022-07-15T01:25:05;98599.00;;;17.00
8362;BMP180;4218;48.326;14.304;2022-07-15T01:27:35;98522.00;;;17.20
8362;BMP180;4218;48.326;14.304;2022-07-15T01:33:47;98541.00;;;17.00
8362;BMP180;4218;48.326;14.304;2022-07-15T01:36:41;98563.00;;;16.90
8362;BMP180;4218;48.326;14.304;2022-07-15T01:39:07;98592.00;;;16.80
8362;BMP180;4218;48.326;14.304;2022-07-15T07:09:53;98741.00;;;17.80
8362;BMP180;4218;48.326;14.304;2022-07-15T07:12:19;98742.00;;;17.70
8362;BMP180;4218;48.326;14.304;2022-07-15T07:14:44;98738.00;;;17.80
8362;BMP180;4218;48.326;14.304;2022-07-15T07:17:10;98746.00;;;17.90
8362;BMP180;4218;48.326;14.304;2022-07-15T07:19:35;98736.00;;;18.20
8362;BMP180;4218;48.326;14.304;2022-07-15T07:22:01;98739.00;;;18.60
8362;BMP180;4218;48.326;14.304;2022-07-15T07:24:27;98748.00;;;18.80
8362;BMP180;4218;48.326;14.304;2022-07-15T07:26:52;98743.00;;;18.60
8362;BMP180;4218;48.326;14.304;2022-07-15T07:29:17;98743.00;;;18.40
8362;BMP180;4218;48.326;14.304;2022-07-15T07:31:51;98743.00;;;18.40
8362;BMP180;4218;48.326;14.304;2022-07-15T07:34:16;98745.00;;;18.40
8362;BMP180;4218;48.326;14.304;2022-07-15T07:36:43;98735.00;;;18.50
8362;BMP180;4218;48.326;14.304;2022-07-15T07:39:08;98745.00;;;18.50
8362;BMP180;4218;48.326;14.304;2022-07-15T07:41:34;98737.00;;;18.60
8362;BMP180;4218;48.326;14.304;2022-07-15T07:44:00;98742.00;;;18.80
8362;BMP180;4218;48.326;14.304;2022-07-15T07:46:25;98722.00;;;19.00
8362;BMP180;4218;48.326;14.304;2022-07-15T07:48:50;98736.00;;;19.20
8362;BMP180;4218;48.326;14.304;2022-07-15T07:51:16;98725.00;;;19.40
8362;BMP180;4218;48.326;14.304;2022-07-15T07:53:42;98736.00;;;19.60
8362;BMP180;4218;48.326;14.304;2022-07-15T07:56:08;98728.00;;;19.60
8362;BMP180;4218;48.326;14.304;2022-07-15T07:58:33;98729.00;;;19.60
8362;BMP180;4218;48.326;14.304;2022-07-15T08:00:59;98730.00;;;19.50
8362;BMP180;4218;48.326;14.304;2022-07-15T08:03:24;98728.00;;;19.60
8362;BMP180;4218;48.326;14.304;2022-07-15T08:05:50;98729.00;;;19.80
8362;BMP180;4218;48.326;14.304;2022-07-15T08:08:18;98727.00;;;19.70
8362;BMP180;4218;48.326;14.304;2022-07-15T08:10:46;98727.00;;;19.90
8362;BMP180;4218;48.326;14.304;2022-07-15T08:13:12;98723.00;;;19.90
8362;BMP180;4218;48.326;14.304;2022-07-15T08:15:41;98730.00;;;20.00
8362;BMP180;4218;48.326;14.304;2022-07-15T08:18:07;98730.00;;;19.90
8362;BMP180;4218;48.326;14.304;2022-07-15T08:20:32;98721.00;;;19.80
8362;BMP180;4218;48.326;14.304;2022-07-15T08:22:58;98721.00;;;19.90
8362;BMP180;4218;48.326;14.304;2022-07-15T08:25:28;98721.00;;;20.40
8362;BMP180;4218;48.326;14.304;2022-07-15T08:27:54;98722.00;;;20.40
8362;BMP180;4218;48.326;14.304;2022-07-15T08:30:20;98724.00;;;20.50
8362;BMP180;4218;48.326;14.304;2022-07-15T08:32:46;98720.00;;;20.40
8362;BMP180;4218;48.326;14.304;2022-07-15T08:35:11;98722.00;;;20.20
8362;BMP180;4218;48.326;14.304;2022-07-15T08:37:36;98720.00;;;20.20
8362;BMP180;4218;48.326;14.304;2022-07-15T08:40:03;98715.00;;;20.10
8362;BMP180;4218;48.326;14.304;2022-07-15T08:42:29;98716.00;;;20.30
8362;BMP180;4218;48.326;14.304;2022-07-15T08:44:54;98721.00;;;20.50
8362;BMP180;4218;48.326;14.304;2022-07-15T08:47:22;98719.00;;;20.60
8362;BMP180;4218;48.326;14.304;2022-07-15T08:49:55;98716.00;;;20.40
8362;BMP180;4218;48.326;14.304;2022-07-15T08:52:23;98722.00;;;20.80
8362;BMP180;4218;48.326;14.304;2022-07-15T08:54:49;98717.00;;;20.90
8362;BMP180;4218;48.326;14.304;2022-07-15T08:57:14;98723.00;;;20.80
8362;BMP180;4218;48.326;14.304;2022-07-15T08:59:40;98725.00;;;20.70
8362;BMP180;4218;48.326;14.304;2022-07-15T09:02:07;98731.00;;;20.90
8362;BMP180;4218;48.326;14.304;2022-07-15T09:04:33;98733.00;;;21.10
8362;BMP180;4218;48.326;14.304;2022-07-15T09:07:01;98734.00;;;21.30
8362;BMP180;4218;48.326;14.304;2022-07-15T09:09:33;98732.00;;;21.30
8362;BMP180;4218;48.326;14.304;2022-07-15T09:12:10;98732.00;;;21.40
8362;BMP180;4218;48.326;14.304;2022-07-15T09:14:39;98733.00;;;21.50
8362;BMP180;4218;48.326;14.304;2022-07-15T09:20:05;98725.00;;;21.80
8362;BMP180;4218;48.326;14.304;2022-07-15T09:22:53;98728.00;;;22.00
8362;BMP180;4218;48.326;14.304;2022-07-15T09:25:19;98733.00;;;21.80
8362;BMP180;4218;48.326;14.304;2022-07-15T09:27:45;98736.00;;;21.80
8362;BMP180;4218;48.326;14.304;2022-07-15T09:33:00;98729.00;;;21.30
8362;BMP180;4218;48.326;14.304;2022-07-15T09:35:45;98732.00;;;21.50
8362;BMP180;4218;48.326;14.304;2022-07-15T09:41:09;98732.00;;;21.90
8362;BMP180;4218;48.326;14.304;2022-07-15T09:43:49;98727.00;;;21.70
8362;BMP180;4218;48.326;14.304;2022-07-15T09:46:15;98720.00;;;21.80
8362;BMP180;4218;48.326;14.304;2022-07-15T09:48:43;98724.00;;;21.80
8362;BMP180;4218;48.326;14.304;2022-07-15T09:51:09;98716.00;;;22.00
8362;BMP180;4218;48.326;14.304;2022-07-15T09:53:35;98712.00;;;22.10
8362;BMP180;4218;48.326;14.304;2022-07-15T09:56:02;98711.00;;;22.20
8362;BMP180;4218;48.326;14.304;2022-07-15T09:58:28;98713.00;;;22.30
8362;BMP180;4218;48.326;14.304;2022-07-15T10:00:54;98704.00;;;22.00
8362;BMP180;4218;48.326;14.304;2022-07-15T10:03:20;98704.00;;;22.10
8362;BMP180;4218;48.326;14.304;2022-07-15T10:05:51;98697.00;;;22.30
8362;BMP180;4218;48.326;14.304;2022-07-15T10:08:18;98701.00;;;22.20
8362;BMP180;4218;48.326;14.304;2022-07-15T10:10:44;98708.00;;;22.30
8362;BMP180;4218;48.326;14.304;2022-07-15T10:16:21;98691.00;;;22.60
8362;BMP180;4218;48.326;14.304;2022-07-15T10:25:12;98704.00;;;22.60
8362;BMP180;4218;48.326;14.304;2022-07-15T10:27:58;98689.00;;;22.50
8362;BMP180;4218;48.326;14.304;2022-07-15T10:30:26;98697.00;;;22.60
8362;BMP180;4218;48.326;14.304;2022-07-15T10:35:46;98690.00;;;22.80
8362;BMP180;4218;48.326;14.304;2022-07-15T10:38:26;98689.00;;;22.70
8362;BMP180;4218;48.326;14.304;2022-07-15T10:41:07;98691.00;;;22.90
8362;BMP180;4218;48.326;14.304;2022-07-15T10:46:18;98684.00;;;23.00
8362;BMP180;4218;48.326;14.304;2022-07-15T10:56:42;98689.00;;;23.00
8362;BMP180;4218;48.326;14.304;2022-07-15T11:01:40;98676.00;;;23.50
8362;BMP180;4218;48.326;14.304;2022-07-15T11:04:23;98676.00;;;23.70
8362;BMP180;4218;48.326;14.304;2022-07-15T11:12:23;98664.00;;;24.60
8362;BMP180;4218;48.326;14.304;2022-07-15T11:15:24;98664.00;;;24.80
8362;BMP180;4218;48.326;14.304;2022-07-15T11:17:48;98662.00;;;24.70
8362;BMP180;4218;48.326;14.304;2022-07-15T11:20:20;98673.00;;;24.80
8362;BMP180;4218;48.326;14.304;2022-07-15T11:22:48;98674.00;;;24.70
8362;BMP180;4218;48.326;14.304;2022-07-15T11:25:21;98662.00;;;24.80
8362;BMP180;4218;48.326;14.304;2022-07-15T11:27:56;98661.00;;;24.60
8362;BMP180;4218;48.326;14.304;2022-07-15T11:30:25;98648.00;;;24.80
8362;BMP180;4218;48.326;14.304;2022-07-15T11:32:56;98652.00;;;24.90
8362;BMP180;4218;48.326;14.304;2022-07-15T11:35:22;98644.00;;;25.20
8362;BMP180;4218;48.326;14.304;2022-07-15T11:37:47;98644.00;;;25.40
8362;BMP180;4218;48.326;14.304;2022-07-15T11:40:15;98657.00;;;24.70
8362;BMP180;4218;48.326;14.304;2022-07-15T11:43:04;98652.00;;;24.70
8362;BMP180;4218;48.326;14.304;2022-07-15T11:45:48;98650.00;;;25.30
8362;BMP180;4218;48.326;14.304;2022-07-15T11:48:14;98637.00;;;25.10
8362;BMP180;4218;48.326;14.304;2022-07-15T11:50:54;98636.00;;;25.40
8362;BMP180;4218;48.326;14.304;2022-07-15T11:53:21;98647.00;;;25.50
8362;BMP180;4218;48.326;14.304;2022-07-15T11:58:33;98647.00;;;25.20
8362;BMP180;4218;48.326;14.304;2022-07-15T12:01:04;98645.00;;;24.90
8362;BMP180;4218;48.326;14.304;2022-07-15T12:03:31;98632.00;;;24.50
8362;BMP180;4218;48.326;14.304;2022-07-15T12:06:10;98635.00;;;23.90
8362;BMP180;4218;48.326;14.304;2022-07-15T12:08:44;98631.00;;;24.10
8362;BMP180;4218;48.326;14.304;2022-07-15T12:11:13;98639.00;;;24.20
8362;BMP180;4218;48.326;14.304;2022-07-15T12:13:56;98639.00;;;24.20
8362;BMP180;4218;48.326;14.304;2022-07-15T12:18:57;98637.00;;;24.80
8362;BMP180;4218;48.326;14.304;2022-07-15T12:21:23;98632.00;;;24.70
8362;BMP180;4218;48.326;14.304;2022-07-15T12:24:04;98636.00;;;25.00
8362;BMP180;4218;48.326;14.304;2022-07-15T12:26:31;98623.00;;;25.30
8362;BMP180;4218;48.326;14.304;2022-07-15T12:29:00;98632.00;;;24.90
8362;BMP180;4218;48.326;14.304;2022-07-15T12:31:27;98640.00;;;23.90
8362;BMP180;4218;48.326;14.304;2022-07-15T12:33:54;98625.00;;;24.30
8362;BMP180;4218;48.326;14.304;2022-07-15T12:36:22;98631.00;;;24.60
8362;BMP180;4218;48.326;14.304;2022-07-15T12:41:29;98626.00;;;25.10
8362;BMP180;4218;48.326;14.304;2022-07-15T12:44:00;98613.00;;;25.40
8362;BMP180;4218;48.326;14.304;2022-07-15T12:49:58;98616.00;;;25.60
8362;BMP180;4218;48.326;14.304;2022-07-15T12:52:38;98610.00;;;25.80
8362;BMP180;4218;48.326;14.304;2022-07-15T12:55:21;98613.00;;;25.60
8362;BMP180;4218;48.326;14.304;2022-07-15T12:57:48;98621.00;;;25.70
8362;BMP180;4218;48.326;14.304;2022-07-15T13:00:22;98607.00;;;25.90
8362;BMP180;4218;48.326;14.304;2022-07-15T13:03:06;98601.00;;;25.70
8362;BMP180;4218;48.326;14.304;2022-07-15T13:05:50;98613.00;;;25.70
8362;BMP180;4218;48.326;14.304;2022-07-15T13:08:21;98609.00;;;25.50
8362;BMP180;4218;48.326;14.304;2022-07-15T13:10:50;98607.00;;;25.10
8362;BMP180;4218;48.326;14.304;2022-07-15T13:13:17;98602.00;;;24.70
8362;BMP180;4218;48.326;14.304;2022-07-15T13:15:43;98609.00;;;24.70
8362;BMP180;4218;48.326;14.304;2022-07-15T13:18:10;98605.00;;;25.00
8362;BMP180;4218;48.326;14.304;2022-07-15T13:20:35;98598.00;;;24.90
8362;BMP180;4218;48.326;14.304;2022-07-15T13:23:01;98596.00;;;24.70
8362;BMP180;4218;48.326;14.304;2022-07-15T13:25:28;98588.00;;;24.50
8362;BMP180;4218;48.326;14.304;2022-07-15T13:27:54;98583.00;;;24.60
8362;BMP180;4218;48.326;14.304;2022-07-15T13:30:20;98586.00;;;24.70
8362;BMP180;4218;48.326;14.304;2022-07-15T13:32:45;98575.00;;;24.80
8362;BMP180;4218;48.326;14.304;2022-07-15T13:35:12;98577.00;;;25.20
8362;BMP180;4218;48.326;14.304;2022-07-15T13:37:39;98583.00;;;25.30
8362;BMP180;4218;48.326;14.304;2022-07-15T13:40:06;98576.00;;;25.50
8362;BMP180;4218;48.326;14.304;2022-07-15T13:42:33;98572.00;;;25.30
8362;BMP180;4218;48.326;14.304;2022-07-15T13:44:59;98576.00;;;25.20
8362;BMP180;4218;48.326;14.304;2022-07-15T13:47:25;98568.00;;;25.40
8362;BMP180;4218;48.326;14.304;2022-07-15T13:49:51;98580.00;;;25.40
8362;BMP180;4218;48.326;14.304;2022-07-15T13:52:46;98570.00;;;24.90
8362;BMP180;4218;48.326;14.304;2022-07-15T13:55:13;98569.00;;;24.90
8362;BMP180;4218;48.326;14.304;2022-07-15T13:57:39;98567.00;;;25.20
8362;BMP180;4218;48.326;14.304;2022-07-15T14:00:06;98575.00;;;25.50
8362;BMP180;4218;48.326;14.304;2022-07-15T14:02:34;98577.00;;;25.60
8362;BMP180;4218;48.326;14.304;2022-07-15T14:04:59;98577.00;;;25.70
8362;BMP180;4218;48.326;14.304;2022-07-15T14:07:25;98582.00;;;25.60
8362;BMP180;4218;48.326;14.304;2022-07-15T14:09:50;98572.00;;;25.80
8362;BMP180;4218;48.326;14.304;2022-07-15T14:12:15;98574.00;;;25.80
8362;BMP180;4218;48.326;14.304;2022-07-15T14:14:41;98571.00;;;25.50
8362;BMP180;4218;48.326;14.304;2022-07-15T14:17:06;98578.00;;;25.20
8362;BMP180;4218;48.326;14.304;2022-07-15T14:19:32;98573.00;;;25.00
8362;BMP180;4218;48.326;14.304;2022-07-15T14:21:57;98572.00;;;25.10
8362;BMP180;4218;48.326;14.304;2022-07-15T14:24:22;98573.00;;;24.80
8362;BMP180;4218;48.326;14.304;2022-07-15T14:26:48;98562.00;;;24.70
8362;BMP180;4218;48.326;14.304;2022-07-15T14:29:13;98565.00;;;24.90
8362;BMP180;4218;48.326;14.304;2022-07-15T14:31:39;98553.00;;;25.30
8362;BMP180;4218;48.326;14.304;2022-07-15T14:34:04;98561.00;;;25.00
8362;BMP180;4218;48.326;14.304;2022-07-15T14:36:30;98554.00;;;24.80
8362;BMP180;4218;48.326;14.304;2022-07-15T14:38:55;98566.00;;;24.70
8362;BMP180;4218;48.326;14.304;2022-07-15T14:41:21;98563.00;;;25.10
8362;BMP180;4218;48.326;14.304;2022-07-15T14:43:46;98558.00;;;25.30
8362;BMP180;4218;48.326;14.304;2022-07-15T14:46:11;98581.00;;;25.20
8362;BMP180;4218;48.326;14.304;2022-07-15T14:48:37;98563.00;;;25.20
8362;BMP180;4218;48.326;14.304;2022-07-15T14:51:02;98573.00;;;25.20
8362;BMP180;4218;48.326;14.304;2022-07-15T14:53:28;98567.00;;;25.20
8362;BMP180;4218;48.326;14.304;2022-07-15T14:55:53;98570.00;;;25.20
8362;BMP180;4218;48.326;14.304;2022-07-15T14:58:18;98568.00;;;25.10
8362;BMP180;4218;48.326;14.304;2022-07-15T15:00:45;98572.00;;;24.80
8362;BMP180;4218;48.326;14.304;2022-07-15T15:03:12;98579.00;;;24.40
8362;BMP180;4218;48.326;14.304;2022-07-15T15:05:38;98569.00;;;24.50
8362;BMP180;4218;48.326;14.304;2022-07-15T15:08:03;98563.00;;;24.50
8362;BMP180;4218;48.326;14.304;2022-07-15T15:10:29;98568.00;;;24.50
8362;BMP180;4218;48.326;14.304;2022-07-15T15:12:54;98571.00;;;24.40
8362;BMP180;4218;48.326;14.304;2022-07-15T15:15:20;98570.00;;;24.40
8362;BMP180;4218;48.326;14.304;2022-07-15T15:17:47;98564.00;;;24.70
8362;BMP180;4218;48.326;14.304;2022-07-15T15:20:12;98564.00;;;24.70
8362;BMP180;4218;48.326;14.304;2022-07-15T15:22:38;98565.00;;;24.40
8362;BMP180;4218;48.326;14.304;2022-07-15T15:25:05;98562.00;;;24.40
8362;BMP180;4218;48.326;14.304;2022-07-15T15:27:31;98554.00;;;24.50
8362;BMP180;4218;48.326;14.304;2022-07-15T15:29:56;98564.00;;;24.50
8362;BMP180;4218;48.326;14.304;2022-07-15T15:32:22;98558.00;;;24.40
8362;BMP180;4218;48.326;14.304;2022-07-15T15:34:47;98560.00;;;24.40
8362;BMP180;4218;48.326;14.304;2022-07-15T15:37:13;98558.00;;;24.40
8362;BMP180;4218;48.326;14.304;2022-07-15T15:39:38;98573.00;;;24.40
8362;BMP180;4218;48.326;14.304;2022-07-15T15:42:05;98561.00;;;24.40
8362;BMP180;4218;48.326;14.304;2022-07-15T15:44:31;98562.00;;;24.50
8362;BMP180;4218;48.326;14.304;2022-07-15T15:46:56;98559.00;;;24.60
8362;BMP180;4218;48.326;14.304;2022-07-15T15:49:22;98553.00;;;24.70
8362;BMP180;4218;48.326;14.304;2022-07-15T15:51:47;98555.00;;;24.60
8362;BMP180;4218;48.326;14.304;2022-07-15T15:54:13;98551.00;;;24.50
8362;BMP180;4218;48.326;14.304;2022-07-15T15:56:38;98548.00;;;24.50
8362;BMP180;4218;48.326;14.304;2022-07-15T15:59:04;98562.00;;;24.40
8362;BMP180;4218;48.326;14.304;2022-07-15T16:01:30;98567.00;;;24.40
8362;BMP180;4218;48.326;14.304;2022-07-15T16:03:56;98553.00;;;24.40
8362;BMP180;4218;48.326;14.304;2022-07-15T16:06:21;98553.00;;;24.20
8362;BMP180;4218;48.326;14.304;2022-07-15T16:08:47;98555.00;;;24.40
8362;BMP180;4218;48.326;14.304;2022-07-15T16:11:13;98562.00;;;24.30
8362;BMP180;4218;48.326;14.304;2022-07-15T16:13:39;98558.00;;;24.30
8362;BMP180;4218;48.326;14.304;2022-07-15T16:16:04;98560.00;;;24.30
8362;BMP180;4218;48.326;14.304;2022-07-15T16:18:30;98568.00;;;24.30
8362;BMP180;4218;48.326;14.304;2022-07-15T16:20:55;98568.00;;;24.30
8362;BMP180;4218;48.326;14.304;2022-07-15T16:23:21;98566.00;;;24.30
8362;BMP180;4218;48.326;14.304;2022-07-15T16:25:47;98566.00;;;24.20
8362;BMP180;4218;48.326;14.304;2022-07-15T16:28:12;98572.00;;;24.00
8362;BMP180;4218;48.326;14.304;2022-07-15T16:30:43;98566.00;;;23.90
8362;BMP180;4218;48.326;14.304;2022-07-15T16:33:09;98576.00;;;23.90
8362;BMP180;4218;48.326;14.304;2022-07-15T16:35:35;98567.00;;;24.00
8362;BMP180;4218;48.326;14.304;2022-07-15T16:38:01;98568.00;;;23.90
8362;BMP180;4218;48.326;14.304;2022-07-15T16:40:27;98559.00;;;23.80
8362;BMP180;4218;48.326;14.304;2022-07-15T16:42:53;98568.00;;;23.70
8362;BMP180;4218;48.326;14.304;2022-07-15T16:45:18;98568.00;;;23.60
8362;BMP180;4218;48.326;14.304;2022-07-15T16:47:44;98557.00;;;23.80
8362;BMP180;4218;48.326;14.304;2022-07-15T16:50:11;98555.00;;;23.90
8362;BMP180;4218;48.326;14.304;2022-07-15T16:52:36;98558.00;;;23.60
8362;BMP180;4218;48.326;14.304;2022-07-15T16:55:03;98559.00;;;23.70
8362;BMP180;4218;48.326;14.304;2022-07-15T16:57:29;98564.00;;;23.60
8362;BMP180;4218;48.326;14.304;2022-07-15T16:59:54;98561.00;;;23.50
8362;BMP180;4218;48.326;14.304;2022-07-15T17:02:19;98566.00;;;23.40
8362;BMP180;4218;48.326;14.304;2022-07-15T17:04:45;98572.00;;;23.20
8362;BMP180;4218;48.326;14.304;2022-07-15T17:07:10;98574.00;;;23.10
8362;BMP180;4218;48.326;14.304;2022-07-15T17:09:37;98574.00;;;23.00
8362;BMP180;4218;48.326;14.304;2022-07-15T17:12:04;98579.00;;;23.00
8362;BMP180;4218;48.326;14.304;2022-07-15T17:14:30;98588.00;;;23.00
8362;BMP180;4218;48.326;14.304;2022-07-15T17:16:56;98584.00;;;23.30
8362;BMP180;4218;48.326;14.304;2022-07-15T17:19:22;98583.00;;;23.20
8362;BMP180;4218;48.326;14.304;2022-07-15T17:21:48;98587.00;;;23.20
8362;BMP180;4218;48.326;14.304;2022-07-15T17:24:13;98589.00;;;23.00
8362;BMP180;4218;48.326;14.304;2022-07-15T17:26:39;98589.00;;;23.00
8362;BMP180;4218;48.326;14.304;2022-07-15T17:29:04;98584.00;;;23.10
8362;BMP180;4218;48.326;14.304;2022-07-15T17:31:31;98595.00;;;23.10
8362;BMP180;4218;48.326;14.304;2022-07-15T17:33:58;98581.00;;;23.00
8362;BMP180;4218;48.326;14.304;2022-07-15T17:36:24;98586.00;;;23.10
8362;BMP180;4218;48.326;14.304;2022-07-15T17:38:50;98587.00;;;23.00
8362;BMP180;4218;48.326;14.304;2022-07-15T17:41:15;98593.00;;;23.10
8362;BMP180;4218;48.326;14.304;2022-07-15T17:43:41;98593.00;;;22.80
8362;BMP180;4218;48.326;14.304;2022-07-15T17:46:07;98594.00;;;22.70
8362;BMP180;4218;48.326;14.304;2022-07-15T17:48:33;98588.00;;;22.60
8362;BMP180;4218;48.326;14.304;2022-07-15T17:50:59;98592.00;;;22.50
8362;BMP180;4218;48.326;14.304;2022-07-15T17:53:26;98592.00;;;22.40
8362;BMP180;4218;48.326;14.304;2022-07-15T17:55:51;98594.00;;;22.30
8362;BMP180;4218;48.326;14.304;2022-07-15T17:58:17;98599.00;;;22.30
8362;BMP180;4218;48.326;14.304;2022-07-15T18:00:42;98592.00;;;22.30
8362;BMP180;4218;48.326;14.304;2022-07-15T18:03:08;98598.00;;;22.10
8362;BMP180;4218;48.326;14.304;2022-07-15T18:05:34;98603.00;;;22.10
8362;BMP180;4218;48.326;14.304;2022-07-15T18:07:59;98588.00;;;22.30
8362;BMP180;4218;48.326;14.304;2022-07-15T18:10:26;98598.00;;;22.10
8362;BMP180;4218;48.326;14.304;2022-07-15T18:12:52;98594.00;;;22.20
8362;BMP180;4218;48.326;14.304;2022-07-15T18:15:17;98608.00;;;22.00
8362;BMP180;4218;48.326;14.304;2022-07-15T18:17:43;98610.00;;;22.00
8362;BMP180;4218;48.326;14.304;2022-07-15T18:20:08;98614.00;;;21.90
8362;BMP180;4218;48.326;14.304;2022-07-15T18:22:34;98606.00;;;21.80
8362;BMP180;4218;48.326;14.304;2022-07-15T18:24:59;98611.00;;;21.70
8362;BMP180;4218;48.326;14.304;2022-07-15T18:27:24;98609.00;;;21.70
8362;BMP180;4218;48.326;14.304;2022-07-15T18:29:50;98609.00;;;21.70
8362;BMP180;4218;48.326;14.304;2022-07-15T18:32:15;98614.00;;;21.60
8362;BMP180;4218;48.326;14.304;2022-07-15T18:34:41;98618.00;;;21.40
8362;BMP180;4218;48.326;14.304;2022-07-15T18:37:07;98628.00;;;21.20
8362;BMP180;4218;48.326;14.304;2022-07-15T18:39:32;98626.00;;;21.20
8362;BMP180;4218;48.326;14.304;2022-07-15T18:41:59;98622.00;;;21.10
8362;BMP180;4218;48.326;14.304;2022-07-15T18:44:25;98618.00;;;21.00
8362;BMP180;4218;48.326;14.304;2022-07-15T18:46:50;98620.00;;;20.90
8362;BMP180;4218;48.326;14.304;2022-07-15T18:49:16;98625.00;;;20.90
8362;BMP180;4218;48.326;14.304;2022-07-15T18:51:41;98624.00;;;20.80
8362;BMP180;4218;48.326;14.304;2022-07-15T18:54:06;98627.00;;;20.50
8362;BMP180;4218;48.326;14.304;2022-07-15T18:56:32;98621.00;;;20.40
8362;BMP180;4218;48.326;14.304;2022-07-15T18:58:57;98633.00;;;20.50
8362;BMP180;4218;48.326;14.304;2022-07-15T19:01:24;98625.00;;;20.20
8362;BMP180;4218;48.326;14.304;2022-07-15T19:03:50;98635.00;;;19.90
8362;BMP180;4218;48.326;14.304;2022-07-15T19:06:16;98636.00;;;19.70
8362;BMP180;4218;48.326;14.304;2022-07-15T19:08:42;98643.00;;;19.80
8362;BMP180;4218;48.326;14.304;2022-07-15T19:11:08;98639.00;;;19.40
8362;BMP180;4218;48.326;14.304;2022-07-15T19:13:35;98645.00;;;19.40
8362;BMP180;4218;48.326;14.304;2022-07-15T19:16:01;98642.00;;;19.40
8362;BMP180;4218;48.326;14.304;2022-07-15T19:18:26;98643.00;;;19.20
8362;BMP180;4218;48.326;14.304;2022-07-15T19:20:54;98642.00;;;19.40
8362;BMP180;4218;48.326;14.304;2022-07-15T19:23:20;98651.00;;;19.40
8362;BMP180;4218;48.326;14.304;2022-07-15T19:25:45;98650.00;;;19.40
8362;BMP180;4218;48.326;14.304;2022-07-15T19:28:11;98653.00;;;19.30
8362;BMP180;4218;48.326;14.304;2022-07-15T19:30:37;98655.00;;;19.10
8362;BMP180;4218;48.326;14.304;2022-07-15T19:33:03;98656.00;;;18.80
8362;BMP180;4218;48.326;14.304;2022-07-15T19:35:29;98656.00;;;18.60
8362;BMP180;4218;48.326;14.304;2022-07-15T19:37:54;98650.00;;;18.50
8362;BMP180;4218;48.326;14.304;2022-07-15T19:40:20;98648.00;;;18.60
8362;BMP180;4218;48.326;14.304;2022-07-15T19:42:46;98656.00;;;18.60
8362;BMP180;4218;48.326;14.304;2022-07-15T19:45:12;98654.00;;;18.80
8362;BMP180;4218;48.326;14.304;2022-07-15T19:47:40;98657.00;;;18.60
8362;BMP180;4218;48.326;14.304;2022-07-15T19:50:06;98668.00;;;18.50
8362;BMP180;4218;48.326;14.304;2022-07-15T19:52:32;98662.00;;;18.60
8362;BMP180;4218;48.326;14.304;2022-07-15T19:54:57;98664.00;;;18.60
8362;BMP180;4218;48.326;14.304;2022-07-15T19:57:22;98669.00;;;18.60
8362;BMP180;4218;48.326;14.304;2022-07-15T19:59:48;98667.00;;;18.50
8362;BMP180;4218;48.326;14.304;2022-07-15T20:02:32;98669.00;;;18.40
8362;BMP180;4218;48.326;14.304;2022-07-15T20:04:57;98670.00;;;18.40
8362;BMP180;4218;48.326;14.304;2022-07-15T20:07:23;98674.00;;;18.20
8362;BMP180;4218;48.326;14.304;2022-07-15T20:09:49;98670.00;;;18.10
8362;BMP180;4218;48.326;14.304;2022-07-15T20:12:14;98673.00;;;18.00
8362;BMP180;4218;48.326;14.304;2022-07-15T20:14:40;98676.00;;;18.10
8362;BMP180;4218;48.326;14.304;2022-07-15T20:17:05;98681.00;;;18.10
8362;BMP180;4218;48.326;14.304;2022-07-15T20:19:31;98673.00;;;18.10
8362;BMP180;4218;48.326;14.304;2022-07-15T20:21:56;98673.00;;;18.00
8362;BMP180;4218;48.326;14.304;2022-07-15T20:24:21;98676.00;;;17.90
8362;BMP180;4218;48.326;14.304;2022-07-15T20:26:48;98677.00;;;17.90
8362;BMP180;4218;48.326;14.304;2022-07-15T20:29:13;98677.00;;;17.80
8362;BMP180;4218;48.326;14.304;2022-07-15T20:31:39;98685.00;;;17.70
8362;BMP180;4218;48.326;14.304;2022-07-15T20:34:04;98680.00;;;17.70
8362;BMP180;4218;48.326;14.304;2022-07-15T20:36:30;98682.00;;;17.60
8362;BMP180;4218;48.326;14.304;2022-07-15T20:38:56;98685.00;;;17.50
8362;BMP180;4218;48.326;14.304;2022-07-15T20:41:21;98687.00;;;17.40
8362;BMP180;4218;48.326;14.304;2022-07-15T20:43:46;98670.00;;;17.30
8362;BMP180;4218;48.326;14.304;2022-07-15T20:46:12;98691.00;;;17.20
8362;BMP180;4218;48.326;14.304;2022-07-15T20:48:38;98684.00;;;17.20